createdAt,value
2023-03-25T00:00:19.556Z,0.80
2023-03-25T00:02:49.454Z,0.30
2023-03-25T00:05:19.993Z,0.50
2023-03-25T00:07:49.998Z,0.30
2023-03-25T00:10:17.415Z,0.30
2023-03-25T00:12:45.114Z,0.17
2023-03-25T00:15:14.006Z,0.70
2023-03-25T00:17:44.562Z,0.10
2023-03-25T00:20:12.340Z,0.40
2023-03-25T00:22:44.818Z,0.10
2023-03-25T00:25:17.755Z,0.30
2023-03-25T00:27:47.014Z,0.20
2023-03-25T00:30:16.195Z,0.30
2023-03-25T00:32:46.454Z,0.10
2023-03-25T00:35:14.152Z,0.30
2023-03-25T00:37:41.583Z,0.20
2023-03-25T00:40:09.529Z,0.30
2023-03-25T00:42:36.651Z,0.20
2023-03-25T00:45:04.466Z,0.13
2023-03-25T00:47:31.766Z,0.20
2023-03-25T00:50:01.558Z,0.20
2023-03-25T00:52:28.820Z,0.27
2023-03-25T00:54:56.029Z,0.27
2023-03-25T00:57:23.387Z,0.10
2023-03-25T00:59:51.567Z,0.20
2023-03-25T01:02:19.245Z,0.40
2023-03-25T01:04:46.780Z,0.43
2023-03-25T01:07:16.063Z,0.40
2023-03-25T01:09:46.871Z,0.30
2023-03-25T01:12:16.160Z,0.40
2023-03-25T01:14:43.500Z,0.20
2023-03-25T01:17:11.436Z,0.27
2023-03-25T01:19:38.894Z,0.30
2023-03-25T01:22:06.311Z,0.47
2023-03-25T01:24:33.658Z,0.30
2023-03-25T01:27:01.482Z,0.50
2023-03-25T01:29:29.075Z,0.30
2023-03-25T01:31:56.816Z,0.20
2023-03-25T01:34:24.353Z,0.30
2023-03-25T01:36:51.569Z,0.37
2023-03-25T01:39:19.441Z,0.60
2023-03-25T01:41:50.872Z,0.50
2023-03-25T01:44:22.312Z,0.60
2023-03-25T01:46:53.945Z,0.60
2023-03-25T01:49:30.494Z,0.50
2023-03-25T01:52:01.877Z,0.70
2023-03-25T01:54:29.621Z,0.90
2023-03-25T01:56:57.119Z,0.80
2023-03-25T01:59:27.304Z,0.70
2023-03-25T02:02:03.139Z,0.70
2023-03-25T02:04:35.068Z,0.70
2023-03-25T02:07:03.298Z,0.73
2023-03-25T02:09:30.678Z,0.97
2023-03-25T02:11:57.719Z,1.30
2023-03-25T02:14:29.177Z,1.10
2023-03-25T02:17:09.568Z,1.13
2023-03-25T02:19:41.037Z,1.27
2023-03-25T02:22:27.351Z,1.20
2023-03-25T02:25:30.346Z,1.03
2023-03-25T02:28:10.404Z,1.10
2023-03-25T02:31:16.130Z,1.30
2023-03-25T02:34:17.262Z,1.40
2023-03-25T02:37:03.555Z,1.33
2023-03-25T02:39:51.781Z,0.70
2023-03-25T02:42:42.822Z,1.30
2023-03-25T02:45:17.378Z,1.13
2023-03-25T02:47:53.050Z,1.17
2023-03-25T02:50:29.041Z,1.10
2023-03-25T02:53:00.564Z,1.27
2023-03-25T02:55:33.660Z,1.20
2023-03-25T02:58:05.027Z,1.23
2023-03-25T03:00:32.970Z,1.20
2023-03-25T03:03:05.220Z,1.50
2023-03-25T03:05:36.044Z,1.10
2023-03-25T03:08:30.341Z,0.67
2023-03-25T03:11:17.924Z,0.93
2023-03-25T03:13:44.898Z,1.00
2023-03-25T03:16:17.792Z,1.30
2023-03-25T03:19:24.417Z,1.20
2023-03-25T03:22:08.653Z,1.57
2023-03-25T03:24:40.471Z,0.63
2023-03-25T03:27:15.058Z,0.80
2023-03-25T03:29:49.660Z,0.90
2023-03-25T03:32:45.839Z,0.90
2023-03-25T03:35:33.651Z,1.50
2023-03-25T03:38:09.550Z,0.73
2023-03-25T03:40:37.756Z,0.70
2023-03-25T03:43:19.992Z,1.30
2023-03-25T03:45:52.129Z,2.00
2023-03-25T03:48:28.554Z,1.27
2023-03-25T03:51:34.174Z,1.37
2023-03-25T03:54:09.296Z,0.50
2023-03-25T03:57:03.818Z,1.50
2023-03-25T04:00:06.654Z,1.33
2023-03-25T04:02:45.181Z,2.47
2023-03-25T04:05:16.952Z,2.00
2023-03-25T04:08:12.327Z,1.80
2023-03-25T04:11:09.872Z,2.00
2023-03-25T04:13:40.877Z,1.50
2023-03-25T04:16:09.305Z,1.93
2023-03-25T04:18:36.442Z,1.43
2023-03-25T04:21:03.986Z,2.10
2023-03-25T04:23:31.724Z,1.70
2023-03-25T04:26:03.034Z,1.43
2023-03-25T04:28:31.985Z,1.50
2023-03-25T04:31:00.823Z,1.43
2023-03-25T04:33:33.052Z,1.43
2023-03-25T04:36:02.127Z,1.70
2023-03-25T04:38:29.751Z,1.23
2023-03-25T04:40:58.547Z,1.87
2023-03-25T04:43:25.673Z,1.40
2023-03-25T04:45:55.823Z,1.80
2023-03-25T04:48:32.327Z,1.50
2023-03-25T04:51:00.160Z,2.03
2023-03-25T04:53:28.026Z,2.57
2023-03-25T04:55:56.109Z,1.80
2023-03-25T04:58:23.426Z,2.23
2023-03-25T05:00:52.135Z,2.33
2023-03-25T05:03:24.834Z,2.35
2023-03-25T05:05:53.748Z,2.45
2023-03-25T05:08:23.411Z,2.40
2023-03-25T05:10:51.032Z,1.90
2023-03-25T05:13:18.240Z,1.60
2023-03-25T05:15:45.373Z,2.33
2023-03-25T05:18:14.849Z,2.60
2023-03-25T05:20:44.347Z,2.33
2023-03-25T05:23:16.713Z,1.70
2023-03-25T05:25:48.762Z,2.10
2023-03-25T05:28:16.702Z,2.90
2023-03-25T05:30:46.286Z,2.45
2023-03-25T05:33:16.332Z,3.27
2023-03-25T05:35:43.974Z,2.07
2023-03-25T05:38:18.663Z,2.10
2023-03-25T05:40:49.246Z,2.20
2023-03-25T05:43:17.320Z,1.70
2023-03-25T05:45:45.771Z,2.07
2023-03-25T05:48:12.946Z,1.83
2023-03-25T05:50:42.967Z,2.87
2023-03-25T05:53:15.693Z,1.80
2023-03-25T05:55:42.705Z,1.57
2023-03-25T05:58:09.826Z,2.50
2023-03-25T06:00:37.612Z,1.90
2023-03-25T06:03:08.703Z,2.00
2023-03-25T06:05:38.815Z,1.97
2023-03-25T06:08:05.910Z,1.90
2023-03-25T06:10:35.856Z,1.73
2023-03-25T06:13:03.024Z,1.80
2023-03-25T06:15:34.074Z,2.20
2023-03-25T06:18:01.326Z,2.17
2023-03-25T06:20:28.882Z,1.70
2023-03-25T06:22:56.397Z,1.77
2023-03-25T06:25:24.458Z,1.13
2023-03-25T06:27:51.777Z,1.67
2023-03-25T06:30:20.856Z,2.37
2023-03-25T06:32:50.922Z,1.73
2023-03-25T06:35:20.659Z,2.00
2023-03-25T06:37:49.334Z,1.47
2023-03-25T06:40:17.950Z,2.40
2023-03-25T06:42:45.126Z,1.90
2023-03-25T06:45:14.090Z,1.60
2023-03-25T06:47:41.199Z,1.13
2023-03-25T06:50:09.396Z,1.70
2023-03-25T06:52:37.260Z,1.60
2023-03-25T06:55:04.853Z,1.60
2023-03-25T06:57:32.516Z,1.17
2023-03-25T06:59:59.941Z,1.50
2023-03-25T07:02:27.119Z,1.73
2023-03-25T07:04:54.539Z,1.70
2023-03-25T07:07:21.743Z,1.90
2023-03-25T07:09:56.199Z,1.33
2023-03-25T07:12:24.675Z,1.37
2023-03-25T07:14:56.054Z,2.10
2023-03-25T07:17:24.428Z,1.33
2023-03-25T07:19:51.540Z,1.73
2023-03-25T07:22:18.897Z,1.63
2023-03-25T07:24:46.284Z,1.53
2023-03-25T07:27:15.000Z,1.60
2023-03-25T07:29:42.367Z,3.80
2023-03-25T07:32:09.843Z,1.60
2023-03-25T07:34:36.898Z,1.53
2023-03-25T07:37:04.316Z,2.10
2023-03-25T07:39:31.501Z,1.20
2023-03-25T07:42:00.763Z,1.80
2023-03-25T07:44:28.281Z,2.40
2023-03-25T07:47:01.632Z,2.70
2023-03-25T07:49:28.874Z,2.40
2023-03-25T07:51:55.911Z,1.90
2023-03-25T07:54:24.561Z,1.77
2023-03-25T07:56:52.989Z,2.60
2023-03-25T07:59:20.670Z,1.90
2023-03-25T08:01:48.366Z,2.00
2023-03-25T08:04:16.425Z,1.97
2023-03-25T08:06:43.627Z,2.93
2023-03-25T08:09:11.208Z,2.50
2023-03-25T08:11:38.355Z,2.13
2023-03-25T08:14:05.706Z,2.00
2023-03-25T08:16:32.820Z,2.07
2023-03-25T08:18:59.918Z,2.07
2023-03-25T08:21:27.612Z,1.97
2023-03-25T08:24:02.451Z,1.70
2023-03-25T08:26:31.307Z,3.67
2023-03-25T08:28:58.635Z,1.90
2023-03-25T08:31:31.265Z,2.00
2023-03-25T08:33:59.674Z,1.70
2023-03-25T08:36:27.865Z,2.23
2023-03-25T08:38:54.870Z,2.20
2023-03-25T08:41:22.038Z,1.87
2023-03-25T08:43:50.145Z,2.07
2023-03-25T08:46:17.408Z,2.37
2023-03-25T08:48:44.810Z,2.10
2023-03-25T08:51:11.990Z,2.30
2023-03-25T08:53:39.097Z,2.50
2023-03-25T08:56:07.722Z,1.90
2023-03-25T08:58:34.773Z,1.90
2023-03-25T09:01:02.628Z,2.10
2023-03-25T09:03:30.652Z,1.73
2023-03-25T09:05:57.708Z,2.10
2023-03-25T09:08:25.324Z,2.00
2023-03-25T09:11:05.377Z,2.33
2023-03-25T09:13:33.734Z,2.30
2023-03-25T09:16:02.753Z,2.10
2023-03-25T09:18:32.360Z,2.20
2023-03-25T09:21:01.009Z,3.07
2023-03-25T09:23:32.006Z,2.30
2023-03-25T09:26:09.545Z,2.50
2023-03-25T09:28:36.603Z,3.60
2023-03-25T09:31:09.607Z,2.07
2023-03-25T09:33:37.221Z,2.43
2023-03-25T09:36:04.443Z,3.20
2023-03-25T09:38:31.643Z,2.00
2023-03-25T09:40:59.164Z,1.57
2023-03-25T09:43:30.610Z,2.13
2023-03-25T09:46:00.348Z,1.90
2023-03-25T09:49:00.775Z,1.93
2023-03-25T09:51:36.117Z,2.23
2023-03-25T09:54:25.427Z,2.33
2023-03-25T09:56:55.920Z,2.80
2023-03-25T09:59:25.773Z,1.87
2023-03-25T10:02:28.721Z,1.77
2023-03-25T10:05:24.825Z,1.80
2023-03-25T10:08:04.473Z,1.70
2023-03-25T10:10:51.538Z,2.00
2023-03-25T10:13:35.345Z,1.00
2023-03-25T10:16:27.255Z,2.30
2023-03-25T10:19:04.350Z,2.77
2023-03-25T10:21:58.817Z,1.80
2023-03-25T10:24:36.562Z,2.70
2023-03-25T10:27:13.232Z,1.53
2023-03-25T10:29:46.154Z,1.80
2023-03-25T10:32:18.672Z,2.27
2023-03-25T10:34:56.333Z,1.60
2023-03-25T10:37:31.460Z,1.17
2023-03-25T10:40:22.302Z,2.03
2023-03-25T10:43:16.625Z,2.33
2023-03-25T10:45:45.017Z,2.27
2023-03-25T10:48:28.763Z,1.70
2023-03-25T10:51:11.614Z,1.80
2023-03-25T10:53:42.373Z,2.10
2023-03-25T10:56:50.496Z,2.30
2023-03-25T10:59:45.527Z,1.40
2023-03-25T11:02:26.246Z,1.80
2023-03-25T11:05:00.410Z,1.67
2023-03-25T11:07:37.935Z,1.90
2023-03-25T11:10:18.181Z,2.13
2023-03-25T11:12:48.144Z,2.03
2023-03-25T11:15:18.292Z,1.87
2023-03-25T11:17:48.169Z,2.00
2023-03-25T11:20:22.273Z,2.80
2023-03-25T11:22:54.534Z,2.03
2023-03-25T11:25:26.872Z,1.90
2023-03-25T11:28:05.626Z,2.30
2023-03-25T11:30:37.144Z,1.50
2023-03-25T11:33:13.411Z,2.00
2023-03-25T11:35:46.902Z,1.60
2023-03-25T11:38:19.834Z,1.93
2023-03-25T11:40:56.303Z,1.23
2023-03-25T11:43:26.512Z,2.40
2023-03-25T11:45:54.274Z,1.80
2023-03-25T11:48:24.620Z,1.80
2023-03-25T11:51:03.299Z,1.97
2023-03-25T11:53:33.541Z,2.13
2023-03-25T11:56:08.594Z,1.60
2023-03-25T11:58:37.900Z,1.63
2023-03-25T12:01:08.990Z,1.80
2023-03-25T12:03:42.612Z,2.20
2023-03-25T12:06:12.844Z,2.10
2023-03-25T12:08:44.549Z,2.10
2023-03-25T12:11:20.578Z,2.13
2023-03-25T12:14:11.690Z,2.00
2023-03-25T12:16:47.367Z,2.63
2023-03-25T12:19:17.501Z,3.33
2023-03-25T12:22:06.033Z,2.13
2023-03-25T12:25:07.905Z,2.50
2023-03-25T12:27:44.062Z,1.77
2023-03-25T12:30:23.232Z,2.10
2023-03-25T12:33:22.245Z,2.03
2023-03-25T12:36:09.035Z,2.00
2023-03-25T12:39:08.236Z,2.30
2023-03-25T12:41:54.796Z,2.43
2023-03-25T12:44:37.015Z,2.40
2023-03-25T12:47:30.719Z,2.20
2023-03-25T12:50:25.682Z,1.73
2023-03-25T12:52:59.195Z,1.90
2023-03-25T12:55:37.829Z,2.13
2023-03-25T12:58:20.743Z,2.13
2023-03-25T13:01:03.469Z,1.70
2023-03-25T13:03:50.726Z,2.00
2023-03-25T13:06:42.664Z,2.80
2023-03-25T13:09:39.609Z,1.80
2023-03-25T13:12:15.573Z,1.90
2023-03-25T13:15:00.928Z,1.83
2023-03-25T13:17:34.681Z,3.17
2023-03-25T13:20:08.063Z,2.33
2023-03-25T13:22:40.073Z,1.60
2023-03-25T13:25:19.447Z,2.10
2023-03-25T13:27:48.957Z,2.13
2023-03-25T13:30:49.874Z,2.20
2023-03-25T13:33:20.915Z,3.07
2023-03-25T13:35:51.957Z,2.50
2023-03-25T13:38:43.942Z,1.97
2023-03-25T13:41:22.657Z,1.60
2023-03-25T13:44:19.830Z,1.87
2023-03-25T13:47:12.780Z,1.43
2023-03-25T13:49:43.162Z,2.10
2023-03-25T13:52:11.353Z,2.50
2023-03-25T13:54:45.616Z,2.27
2023-03-25T13:57:21.947Z,2.13
2023-03-25T13:59:59.980Z,2.00
2023-03-25T14:03:09.327Z,2.63
2023-03-25T14:05:52.718Z,2.27
2023-03-25T14:08:31.528Z,1.87
2023-03-25T14:11:22.298Z,2.20
2023-03-25T14:14:11.614Z,2.30
2023-03-25T14:16:46.609Z,1.27
2023-03-25T14:19:18.597Z,2.33
2023-03-25T14:21:50.731Z,1.77
2023-03-25T14:24:32.804Z,2.53
2023-03-25T14:27:26.605Z,3.57
2023-03-25T14:29:59.319Z,2.40
2023-03-25T14:32:33.988Z,1.70
2023-03-25T14:35:34.915Z,3.07
2023-03-25T14:38:12.087Z,1.93
2023-03-25T14:40:58.952Z,2.30
2023-03-25T14:43:50.711Z,2.00
2023-03-25T14:46:23.645Z,2.83
2023-03-25T14:49:06.176Z,2.17
2023-03-25T14:51:35.005Z,2.20
2023-03-25T14:54:03.908Z,3.70
2023-03-25T14:56:37.575Z,1.83
2023-03-25T14:59:14.841Z,2.57
2023-03-25T15:01:44.361Z,2.60
2023-03-25T15:04:38.378Z,2.37
2023-03-25T15:07:16.483Z,1.80
2023-03-25T15:09:56.136Z,2.73
2023-03-25T15:12:26.749Z,2.10
2023-03-25T15:15:06.970Z,2.00
2023-03-25T15:17:46.519Z,2.30
2023-03-25T15:20:29.169Z,2.30
2023-03-25T15:23:20.702Z,2.10
2023-03-25T15:25:50.701Z,2.10
2023-03-25T15:28:35.888Z,3.37
2023-03-25T15:31:10.997Z,2.80
2023-03-25T15:33:53.430Z,2.77
2023-03-25T15:36:53.703Z,2.10
2023-03-25T15:39:45.833Z,2.07
2023-03-25T15:42:35.897Z,2.50
2023-03-25T15:45:19.344Z,2.50
2023-03-25T15:48:14.443Z,2.13
2023-03-25T15:51:08.675Z,2.40
2023-03-25T15:54:03.267Z,2.27
2023-03-25T15:56:37.352Z,2.07
2023-03-25T15:59:16.361Z,3.40
2023-03-25T16:01:52.675Z,3.03
2023-03-25T16:04:36.049Z,3.33
2023-03-25T16:07:05.397Z,1.97
2023-03-25T16:09:33.694Z,2.63
2023-03-25T16:12:02.364Z,2.60
2023-03-25T16:14:33.615Z,3.00
2023-03-25T16:17:05.424Z,2.80
2023-03-25T16:19:45.172Z,2.40
2023-03-25T16:22:33.461Z,2.80
2023-03-25T16:25:06.940Z,2.60
2023-03-25T16:27:42.543Z,2.77
2023-03-25T16:30:26.080Z,2.23
2023-03-25T16:32:53.379Z,2.67
2023-03-25T16:35:28.438Z,2.17
2023-03-25T16:37:57.597Z,2.90
2023-03-25T16:40:31.966Z,1.97
2023-03-25T16:43:12.458Z,2.67
2023-03-25T16:45:41.038Z,2.07
2023-03-25T16:48:16.928Z,2.97
2023-03-25T16:58:15.730Z,1.57
2023-03-25T17:03:57.773Z,1.93
2023-03-25T17:12:37.666Z,2.40
2023-03-25T17:18:54.275Z,2.27
2023-03-25T17:25:16.240Z,2.13
2023-03-25T17:28:07.628Z,2.10
2023-03-25T17:30:44.486Z,2.47
2023-03-25T17:33:36.260Z,2.30
2023-03-25T17:36:18.726Z,2.43
2023-03-25T17:38:57.587Z,1.97
2023-03-25T17:45:14.843Z,1.33
2023-03-25T17:47:42.256Z,2.10
2023-03-25T17:50:22.032Z,1.83
2023-03-25T17:52:49.087Z,1.90
2023-03-25T17:55:17.523Z,2.50
2023-03-25T17:57:44.828Z,2.27
2023-03-25T18:00:20.830Z,2.10
2023-03-25T18:02:48.499Z,1.37
2023-03-25T18:05:15.767Z,2.33
2023-03-25T18:07:43.183Z,2.30
2023-03-25T18:10:17.664Z,2.47
2023-03-25T18:13:03.934Z,1.33
2023-03-25T18:15:31.739Z,1.70
2023-03-25T18:17:59.272Z,1.43
2023-03-25T18:20:29.687Z,1.30
2023-03-25T18:22:57.161Z,1.80
2023-03-25T18:25:24.947Z,1.20
2023-03-25T18:27:53.441Z,1.83
2023-03-25T18:30:25.692Z,1.33
2023-03-25T18:32:52.894Z,1.63
2023-03-25T18:35:20.191Z,1.53
2023-03-25T18:37:48.938Z,2.77
2023-03-25T18:40:17.422Z,1.00
2023-03-25T18:42:44.466Z,1.57
2023-03-25T18:45:12.817Z,1.50
2023-03-25T18:47:39.982Z,1.37
2023-03-25T18:50:27.387Z,1.00
2023-03-25T18:52:56.074Z,1.00
2023-03-25T18:55:23.744Z,1.40
2023-03-25T18:57:51.062Z,1.40
2023-03-25T19:00:23.970Z,1.70
2023-03-25T19:02:53.082Z,1.43
2023-03-25T19:05:22.598Z,1.60
2023-03-25T19:07:50.660Z,1.60
2023-03-25T19:10:21.812Z,2.67
2023-03-25T19:12:49.342Z,1.27
2023-03-25T19:15:18.974Z,1.40
2023-03-25T19:17:47.718Z,1.50
2023-03-25T19:20:23.365Z,1.50
2023-03-25T19:22:51.359Z,1.30
2023-03-25T19:25:19.542Z,1.40
2023-03-25T19:27:47.166Z,1.53
2023-03-25T19:30:19.932Z,1.60
2023-03-25T19:32:48.771Z,1.50
2023-03-25T19:35:17.832Z,1.77
2023-03-25T19:37:50.979Z,1.63
2023-03-25T19:40:32.842Z,1.03
2023-03-25T19:43:05.427Z,0.90
2023-03-25T19:45:33.902Z,1.40
2023-03-25T19:48:01.523Z,1.60
2023-03-25T19:50:32.260Z,1.60
2023-03-25T19:53:02.342Z,1.47
2023-03-25T19:55:32.630Z,0.83
2023-03-25T19:58:00.148Z,1.77
2023-03-25T20:00:32.409Z,1.27
2023-03-25T20:03:02.276Z,1.73
2023-03-25T20:05:31.316Z,1.57
2023-03-25T20:07:59.334Z,1.37
2023-03-25T20:10:31.002Z,1.10
2023-03-25T20:12:58.785Z,1.80
2023-03-25T20:15:27.276Z,1.00
2023-03-25T20:17:55.751Z,1.33
2023-03-25T20:20:24.657Z,1.63
2023-03-25T20:22:52.165Z,1.83
2023-03-25T20:25:19.776Z,1.60
2023-03-25T20:27:47.636Z,1.33
2023-03-25T20:30:21.152Z,1.13
2023-03-25T20:32:50.526Z,1.60
2023-03-25T20:35:19.391Z,1.40
2023-03-25T20:37:49.200Z,1.50
2023-03-25T20:40:19.712Z,1.37
2023-03-25T20:42:48.976Z,1.50
2023-03-25T20:45:17.764Z,1.40
2023-03-25T20:47:45.689Z,1.53
2023-03-25T20:50:14.876Z,1.53
2023-03-25T20:52:42.171Z,1.40
2023-03-25T20:55:10.198Z,1.27
2023-03-25T20:57:38.469Z,1.00
2023-03-25T21:00:07.210Z,1.40
2023-03-25T21:02:34.771Z,0.70
2023-03-25T21:05:03.379Z,1.20
2023-03-25T21:07:32.186Z,1.30
2023-03-25T21:09:59.825Z,1.13
2023-03-25T21:12:40.395Z,1.33
2023-03-25T21:15:09.516Z,1.03
2023-03-25T21:17:37.338Z,1.13
2023-03-25T21:20:09.325Z,1.20
2023-03-25T21:22:43.448Z,1.07
2023-03-25T21:25:13.145Z,1.47
2023-03-25T21:27:42.509Z,0.80
2023-03-25T21:30:10.562Z,0.70
2023-03-25T21:32:38.959Z,1.07
2023-03-25T21:35:07.176Z,1.73
2023-03-25T21:37:40.667Z,0.90
2023-03-25T21:40:11.097Z,1.23
2023-03-25T21:42:42.680Z,1.13
2023-03-25T21:45:12.353Z,1.10
2023-03-25T21:47:40.280Z,1.17
2023-03-25T21:50:10.556Z,1.50
2023-03-25T21:52:46.726Z,1.10
2023-03-25T21:55:15.890Z,1.53
2023-03-25T21:57:45.048Z,1.10
2023-03-25T22:00:15.737Z,1.27
2023-03-25T22:02:44.849Z,1.40
2023-03-25T22:05:16.842Z,0.90
2023-03-25T22:07:43.959Z,1.63
2023-03-25T22:10:12.007Z,1.63
2023-03-25T22:12:39.367Z,1.10
2023-03-25T22:15:08.317Z,1.30
2023-03-25T22:17:35.740Z,1.30
2023-03-25T22:20:05.409Z,1.67
2023-03-25T22:22:33.074Z,1.13
2023-03-25T22:25:00.481Z,1.27
2023-03-25T22:27:27.646Z,1.33
2023-03-25T22:29:54.626Z,0.97
2023-03-25T22:32:21.876Z,1.60
2023-03-25T22:34:48.929Z,1.13
2023-03-25T22:37:16.315Z,1.43
2023-03-25T22:39:43.652Z,1.07
2023-03-25T22:42:10.913Z,1.97
2023-03-25T22:44:39.562Z,0.97
2023-03-25T22:47:08.038Z,1.67
2023-03-25T22:49:36.093Z,1.17
2023-03-25T22:52:03.470Z,1.50
2023-03-25T22:54:30.751Z,1.37
2023-03-25T22:56:58.214Z,1.60
2023-03-25T22:59:25.463Z,1.93
2023-03-25T23:01:52.874Z,1.57
2023-03-25T23:04:20.095Z,1.10
2023-03-25T23:06:57.073Z,1.07
2023-03-25T23:09:42.197Z,1.20
2023-03-25T23:12:20.109Z,0.73
2023-03-25T23:14:52.991Z,1.93
2023-03-25T23:17:20.585Z,1.60
2023-03-25T23:19:48.974Z,0.70
2023-03-25T23:22:19.388Z,1.33
2023-03-25T23:24:47.356Z,1.60
2023-03-25T23:27:15.419Z,1.43
2023-03-25T23:29:43.446Z,2.37
2023-03-25T23:32:11.147Z,1.30
2023-03-25T23:34:38.882Z,1.17
2023-03-25T23:37:10.644Z,3.13
2023-03-25T23:39:40.565Z,2.30
2023-03-25T23:42:09.542Z,1.70
2023-03-25T23:44:37.454Z,1.40
2023-03-25T23:47:05.213Z,2.17
2023-03-25T23:49:34.043Z,1.13
2023-03-25T23:52:01.432Z,0.60
2023-03-25T23:54:29.048Z,2.47
2023-03-25T23:56:56.276Z,0.53
2023-03-25T23:59:23.695Z,1.67
